Ride Results

Tom Quilty Gold Cup (07-07-2017)
Ride distance: 160.0 km

Outcomes - Tom Quilty Gold Cup (07-07-2017)
Division No. of Entries Retired / DNE Completed Withdrawn Ineligible V/O Percentage Completed
HW 26 - 17 2 - 7 65.38%
MW 83 - 49 6 - 28 59.04%
LW 49 - 35 2 - 12 71.43%
JN 6 - 5 - - 1 83.33%
Totals 164 - 106 10 - 48 64.63%
Results - Tom Quilty Gold Cup (07-07-2017)
No. Rider Horse Place Time Leg Speeds Total
Km/Hr
H/R bpm
Heavyweight
14 Rod Field Brookleigh Louise 1 (BC) 12:10:18 14.7, 13.4, 14.2, 10.7, 10.6 13.15 38, 52, 52, 56, 48, 56, 60 (Avg:54)
117 Matt Gadsby Ra Silver Dancer 2 13:14:37 15.1, 14.6, 11.4, 9.0, 8.6 12.08 32, 52, 52, 56, 40, 56, 56 (Avg:52)
171 Jean Michel Grimal Mariu Nero 3 13:25:48 14.1, 12.3, 12.2, 10.0, 8.7 11.91 32, 48, 52, 59, 46, 52, 44 (Avg:50)
26 Shane Butler Burralga Angelikh 4 14:21:05 12.5, 10.8, 10.5, 10.8, 10.6 11.15 36, 52, 48, 48, 46, 48, 56 (Avg:49)
15 Shimpei Miyamoto Aloha Blue Opal 5 14:31:02 15.7, 11.8, 10.5, 8.9, 6.8 11.02 40, 52, 48, 54, 48, 48, 44 (Avg:49)
16 Mark Nimon Abbeywood Le'Tigre 6 16:20:31 13.4, 13.1, 9.6, 7.8, 4.6 9.79 40, 56, 56, 48, 56, 53, 52, 52, 56 (Avg:53)
166 Ash Cole Zee Boy Rodney 7 17:46:26 12.7, 10.5, 8.8, 8.4, 4.1 9.00 44, 60, 60, 58, 60, 56, 52 (Avg:57)
113 Gail Fisher Arasarta Narhalinian 8 18:46:42 10.9, 8.8, 8.8, 6.9, 5.5 8.52 36, 56, 52, 56, 56, 56, 52 (Avg:54)
159 Sue Warren Entourage Era 9 18:47:23 11.1, 8.8, 8.7, 6.8, 5.5 8.52 34, 52, 52, 56, 58, 52, 52 (Avg:53)
161 Bryce Hackley Suncrest Diva 10 19:00:49 10.5, 8.8, 9.0, 6.4, 5.8 8.42 44, 52, 52, 58, 52, 60, 56 (Avg:55)
38 Paula Van Eck Pyrenees Impala 11 19:15:03 10.6, 8.8, 8.6, 6.2, 5.8 8.31 32, 30, 36, 48, 40, 40, 40 (Avg:39)
144 Andrew Jonkers Girilambone Comet 12 19:20:12 11.7, 8.4, 8.0, 6.3, 5.9 8.27 36, 48, 48, 48, 48, 46, 44 (Avg:47)
123 Phil Coleman Rainbows Reach Dark N Stormy 13 19:33:53 9.7, 8.6, 8.6, 6.8, 5.4 8.18 36, 60, 56, 50, 52, 52, 48 (Avg:53)
46 Rachael Barnett Shady 14 20:00:29 10.0, 8.4, 8.6, 6.3, 5.1 8.00 36, 48, 56, 52, 56, 52, 46 (Avg:51)
68 Lainie Ray Diamond R Turbo 15 20:00:36 9.9, 8.4, 8.5, 6.4, 5.1 8.00 36, 48, 52, 58, 60, 52, 48 (Avg:53)
42 Stephanie Cooper Allanooka Shadene 16 20:00:54 9.7, 8.5, 8.5, 6.4, 5.2 7.99 40, 52, 52, 52, 56, 58, 60 (Avg:55)
28 Gavin Bartlett Longrun Drifter 17 20:18:17 9.2, 8.0, 9.3, 5.6, 6.0 7.88 48, 48, 48, 48, 52, 48, 48 (Avg:48)
125 Allan Caslick A'Landell Kazade Lame L5 16:03:41 12.6, 11.5, 9.4, 8.4, 6.3 9.96 32, 52, 59, 48, 50, 56, 52 (Avg:52)
44 Denis Sugars Highland View Pearl Lame L5 19:06:45 10.4, 9.4, 9.1, 6.8, 4.6 8.37 44, 48, 52, 52, 54, 54, 52, 58 (Avg:52)
135 Tamara Atkinson Mathoura McKinlay Lame L3 11:50:29 12.1, 11.8, 8.1 10.39 44, 60, 58, 54, 56 (Avg:57)
145 Selwyn Nix Dunbar Mahadik Widthdrawn L3 (Rep) 13:10:26 - 9.34 44, 46, 52, 56, 52, 40 (Avg:49)
115 Luke Annetts Crystan Lame L3 13:37:00 10.8, 10.0, 7.0 9.03 40, 52, 56, 52 (Avg:53)
172 Trenton Huxtable Highland View Bill Back L3 (Rep) 15:38:51 8.6, 7.8, 7.1 7.86 36, 60, 52, 52, 60 (Avg:56)
130 Stuart Lymbery Baranne Tu-Shay Lame L2 8:38:28 10.4, 8.9 9.61 40, 48, 52 (Avg:50)
25 Maurice Gray Aloha Queen Lame P/R 0:00:00 - - 36
150 Jody Smith Tarjo Ace of Hearts Widthdrawn P/R 0:00:00 - - 32
Middleweight
73 Brooke Brown-Cordell Tierview Salama 1 (BC) 10:28:40 16.5, 14.8, 14.6, 16.0, 13.9 15.27 42, 54, 60, 58, 52, 60, 58 (Avg:57)
1 Debbie Grull Lauralyn Notorious 2 11:11:21 15.9, 15.3, 14.1, 12.3, 11.7 14.30 40, 56, 56, 48, 56, 56, 56, 56 (Avg:54)
158 Talea Hasko-Stewart Blake's Heaven Bombora 2 11:11:21 16.3, 15.1, 14.4, 11.7, 11.9 14.30 39, 58, 58, 58, 48, 58, 56 (Avg:56)
8 Akhmed Pshunov Sangah The Messiah 4 11:40:07 14.0, 13.6, 14.5, 12.2, 13.2 13.71 40, 60, 52, 59, 56, 60, 58 (Avg:57)
23 Steve Gray Sir Avatar 5 11:57:40 14.8, 13.4, 13.1, 11.8, 12.8 13.38 36, 52, 54, 52, 48, 54, 48 (Avg:51)
10 Leigh Ann Sample Brookleigh Bailey 6 11:57:54 16.2, 13.1, 13.3, 10.8, 12.2 13.37 40, 55, 44, 58, 56, 60, 56 (Avg:54)
12 Brook Sample Brookleigh Dylan 7 12:01:17 16.1, 13.2, 13.5, 10.7, 11.4 13.31 36, 56, 56, 44, 60, 52, 60, 56 (Avg:54)
170 Frank Laousse Delilah te 8 12:06:10 14.2, 13.0, 12.6, 12.7, 13.6 13.22 32, 56, 56, 52, 44, 56, 56 (Avg:53)
5 Jamie Green Cameo Mazquerade 9 12:06:49 14.0, 13.6, 15.0, 10.5, 10.9 13.21 40, 58, 56, 60, 52, 58, 58 (Avg:57)
22 Gayle Holmes Cairo 10 12:55:52 13.4, 12.2, 13.2, 11.5, 9.7 12.37 40, 52, 52, 52, 48, 56, 56 (Avg:52)
54 Stella Harbison Willowstar Bay-Sil 11 13:08:10 14.3, 13.2, 11.7, 10.8, 8.9 12.18 32, 56, 52, 56, 56, 50, 48 (Avg:53)
60 Blaine Astell Karabah Tully 12 13:14:39 14.1, 12.7, 13.9, 8.9, 8.7 12.08 38, 56, 54, 56, 44, 56, 56 (Avg:53)
134 Kristie Taprell Castlebar Belair 13 13:25:53 14.1, 12.3, 12.2, 10.1, 8.6 11.91 36, 48, 56, 56, 46, 46, 44 (Avg:49)
155 Amelia Napier Oso Nicholas 14 14:27:43 12.9, 11.7, 10.9, 9.4, 8.4 11.06 36, 48, 56, 60, 54, 52, 52 (Avg:53)
3 Connor Krahnen Ardai 15 14:28:12 15.4, 13.4, 9.4, 8.1, 8.6 11.06 48, 58, 56, 52, 58, 56, 52, 56 (Avg:55)
133 Noni Seagrim Coolinda Park Words of Wisdom 16 14:29:45 12.0, 11.2, 10.6, 11.4, 8.7 11.04 50, 52, 52, 60, 56, 52, 55 (Avg:54)
101 Steve Blackhurst Rafeeq 17 14:30:35 16.1, 13.5, 11.0, 7.4, 6.5 11.03 38, 48, 56, 56, 52, 52, 48 (Avg:52)
92 Jason Rathbone Blake's Heaven Dawn Treader 18 14:30:54 13.5, 12.2, 11.2, 9.2, 6.9 11.02 44, 56, 52, 60, 58, 60, 56 (Avg:57)
154 Tayla Hadzi AM Reigning Bianca 19 14:39:50 14.0, 12.0, 9.9, 9.2, 7.9 10.91 32, 55, 58, 60, 60, 56, 52 (Avg:56)
65 Janine Parr Janarr Shimmering Surprise 20 15:48:25 12.7, 11.2, 10.3, 8.5, 6.0 10.12 40, 52, 58, 48, 52, 52, 52 (Avg:52)
149 Karen Anderson Malleegrove Samsara 21 16:18:48 15.2, 10.8, 8.9, 7.7, 5.9 9.81 44, 52, 48, 60, 60, 60, 56 (Avg:56)
61 Helen Astell Castlebar Dude 22 16:31:19 11.8, 10.8, 9.5, 7.8, 6.7 9.68 30, 52, 52, 56, 52, 52, 48 (Avg:52)
62 Karen Quinn Distinctive-L-Zarin (au) 23 16:31:23 11.8, 10.6, 9.6, 7.8, 6.7 9.68 36, 56, 56, 52, 52, 56, 52 (Avg:54)
104 Sarah Dumbrell Jotaris Jenaya 24 16:41:54 10.6, 10.6, 10.0, 7.8, 6.9 9.58 36, 60, 52, 56, 48, 52, 52 (Avg:53)
114 Jennifer Johansen Churinga Gulf Dream 25 17:40:17 10.8, 9.9, 8.6, 7.7, 6.7 9.05 24, 44, 52, 52, 52, 60, 56 (Avg:52)
160 Jeanette Mero Devious Suni Desert Warrior 26 17:40:38 11.0, 9.3, 9.0, 8.0, 6.5 9.05 36, 56, 48, 58, 54, 48, 56 (Avg:53)
131 Sarah Lymbery Aloha Typic 27 17:50:54 10.4, 8.9, 10.0, 7.8, 6.1 8.96 40, 44, 48, 52, 50, 48, 50 (Avg:48)
105 Rachell Nell Robmurty Jimminy 28 17:51:03 11.2, 9.2, 8.9, 7.7, 6.2 8.96 32, 48, 52, 48, 44, 48, 44 (Avg:47)
74 Sarah Parker Wybalena Lodge Aflirt 29 17:53:13 11.9, 9.5, 9.2, 6.7, 6.0 8.95 40, 54, 52, 58, 52, 52, 48 (Avg:52)
48 Melissa Bright Kirrani's Semillon Fire 30 18:27:24 10.8, 8.6, 9.0, 7.4, 6.0 8.67 32, 44, 56, 52, 52, 48, 48 (Avg:50)
119 Mette Sutton Tuldar Tully 31 18:47:36 10.9, 8.8, 8.8, 6.9, 5.5 8.51 44, 55, 52, 56, 52, 59, 56 (Avg:55)
146 Corey Nix Homeleigh Mountain Kosmo 32 18:51:07 9.9, 9.2, 8.8, 7.0, 5.7 8.49 40, 60, 56, 60, 56, 56, 60, 56 (Avg:57)
138 Shannon Cossor Future Dream Gypsy 33 18:53:32 12.9, 11.2, 10.3, 4.4, 4.6 8.47 44, 56, 50, 48, 56, 60, 60 (Avg:55)
175 Peggy Murphy-Hackley Tarkhim Shar Bastille 34 19:00:55 10.5, 8.8, 9.0, 6.4, 5.8 8.41 36, 48, 48, 52, 60, 52, 48 (Avg:51)
43 Julie White Maringo 35 19:01:00 10.5, 8.8, 9.0, 6.4, 5.8 8.41 28, 48, 48, 52, 50, 48, 48, 40 (Avg:47)
77 Jessie Mihocek DVS Sunsilk 36 19:06:32 11.7, 8.5, 9.1, 6.8, 4.6 8.37 36, 56, 48, 54, 52, 48, 54, 48 (Avg:51)
35 Jo Hamilton-Branigan Kholonial Boadecia 37 19:07:00 10.0, 9.0, 8.8, 6.7, 5.7 8.37 32, 44, 48, 52, 52, 48, 44 (Avg:48)
111 Sam Jones Kelkette Park Silver Envoy 38 19:12:28 9.9, 9.3, 8.9, 6.3, 5.5 8.33 44, 56, 56, 56, 60, 56, 56, 60 (Avg:57)
37 Kimberly Measham Zayed All Klass 39 19:15:07 10.6, 8.8, 8.6, 6.2, 5.8 8.31 40, 48, 58, 60, 54, 60, 56 (Avg:56)
81 Simon Thomas Morundah Just Sharii 40 19:15:22 10.4, 8.7, 8.9, 6.3, 5.6 8.31 30, 44, 56, 52, 52, 48, 44 (Avg:49)
85 Tanya Beacham Creswick Magdaleenah 41 19:16:04 10.1, 8.9, 8.9, 6.2, 5.8 8.30 36, 52, 54, 52, 52, 60, 44 (Avg:52)
57 Keryn Mahoney Tonki Dee Boo Pricilla 42 19:28:09 9.9, 9.2, 8.7, 6.0, 5.8 8.22 36, 52, 52, 52, 52, 54, 48 (Avg:51)
13 Jodie Luck Lindall Alabaska 43 19:32:14 10.8, 8.8, 8.8, 5.7, 5.5 8.19 36, 44, 48, 52, 56, 52, 48 (Avg:50)
140 Gail Pound P.F. Kudamoon 44 19:48:42 10.4, 8.4, 8.3, 6.4, 5.4 8.08 36, 52, 52, 56, 52, 56, 48 (Avg:52)
139 Kevin Guihot Windradyne Ferrero 45 19:48:48 10.9, 8.1, 8.3, 6.4, 5.4 8.08 36, 44, 44, 52, 44, 44, 45 (Avg:45)
103 Georgie Hart Kalody Park Zayeem 46 20:04:41 9.1, 8.8, 8.3, 5.9, 6.3 7.97 40, 48, 56, 52, 48, 48, 48 (Avg:50)
78 Sharee Court Just Shakira 47 20:31:45 9.5, 7.7, 8.4, 5.5, 7.2 7.79 44, 44, 52, 48, 52, 52, 54 (Avg:50)
91 Jessica Remfry Music Maker 48 20:31:55 9.5, 7.6, 8.5, 5.5, 7.2 7.79 36, 48, 60, 56, 56, 60, 48 (Avg:54)
52 Bob Masters Sharwood Sinai 49 20:33:57 8.8, 8.0, 8.0, 5.6, 8.2 7.78 32, 44, 56, 44, 50, 52, 52 (Avg:49)
151 Tracy-Lee Cossor Cap Braveheart Lame L5 11:00:37 16.7, 14.8, 14.5, 13.7, 10.5 14.53 32, 52, 58, 58, 48, 59, 48 (Avg:53)
141 Ian Curtis Blake's Heaven Summer Wind Lame L5 14:11:44 15.7, 15.2, 14.0, 8.8, 4.1 11.27 34, 52, 48, 56, 52, 52, 44 (Avg:50)
53 Mary Chirgwin Tunamara Jester Lame L5 16:02:25 15.7, 11.5, 8.6, 7.8, 6.1 9.97 36, 48, 60, 52, 54, 52, 48 (Avg:52)
50 Emma Kirby Springfield Park Stellah Lame L5 18:27:35 10.6, 8.6, 9.0, 7.4, 6.0 8.67 38, 48, 52, 52, 44, 52, 48 (Avg:49)
128 Gertraud Norton Scarlet Oaks Amica Failure to lead L4 12:20:43 14.4, 13.0, 11.2, 8.4 11.83 38, 52, 54, 56, 48, 56 (Avg:53)
163 Nadine Barker Windradyne Flame Metabolics L4 (Rep) 13:27:00 12.6, 12.1, 10.4, 7.8 10.86 32, 48, 56, 58, 54, 60, 66, 66 (Avg:58)
174 Jil Bourton Veloce Divine Lame L4 16:40:59 11.1, 8.7, 8.4, 6.5 8.75 36, 52, 50, 56, 52, 52 (Avg:52)
64 Noel Lockhart Lockleigh Park Spirit of Tas Lame L3 (Rep) 8:32:02 16.0, 14.2, 13.1 14.41 36, 56, 48, 52, 50 (Avg:51)
31 Penny Toft Beaudacious te Lame L3 9:15:10 14.1, 13.0, 12.7 13.29 32, 52, 56, 56 (Avg:54)
148 Scott Peters Castlebar Icon Widthdrawn L3 (Rep) 10:45:20 - 11.44 35, 52, 56, 48, 48 (Avg:51)
89 Jane McLaughlin Syrahbia Lame L3 (Rep) 11:17:31 11.6, 10.2, 10.7 10.89 36, 52, 58, 56, 54 (Avg:55)
45 Mandy Barth KP Samson Widthdrawn L3 (Rep) 12:42:40 - 9.68 30, 48, 46, 48, 40 (Avg:45)
95 Hayley Plageman Deep Forest Orahn Lame L3 12:43:30 10.6, 9.5, 8.9 9.67 56, 50, 52, 50 (Avg:50)
82 Robyn Albers Tubbarubba Jay Jay Heart Rate L3 (Rep) 12:51:15 10.4, 9.3, 9.0 9.57 40, 48, 48, 56, 64 (Avg:54)
83 Michael Cadman A'landell Kwaint Widthdrawn L3 (Rep) 12:51:23 - 9.57 32, 44, 44, 50, 48 (Avg:46)
157 Shelley Jones Shellal Blue Lame L3 12:51:33 10.6, 9.6, 8.6 9.57 40, 54, 52, 48 (Avg:51)
34 Brenda Davy Highland View Penny Back L3 (Rep) 13:03:27 9.9, 9.3, 8.9 9.42 56, 48, 52, 52, 56 (Avg:52)
143 Kylie Jonkers Girilambone Venus Lame L3 13:23:22 11.7, 8.4, 8.0 9.19 56, 40, 48, 50 (Avg:46)
41 Wendy Grundy Kalody Park Shayesha Lame L3 13:42:03 9.9, 8.4, 8.6 8.98 34, 40, 52, 52 (Avg:48)
90 Sheryl Herbert Krishlah Maleeka Back L3 (Rep) 14:25:40 9.5, 7.7, 8.4 8.53 44, 48, 52, 60, 56 (Avg:54)
167 Ashley Cole Kahuna Moon Lame L2 5:24:32 16.4, 14.3 15.35 32, 52, 52 (Avg:52)
27 Kelsey Irvine Karma Lame L2 5:24:42 16.1, 14.5 15.34 44, 52, 58 (Avg:55)
165 Mark Tylee Glendhu Chester Lame L2 5:29:31 16.0, 14.2 15.11 44, 56, 56 (Avg:56)
2 Simone Krahnen La-Battist Shadow Fax Widthdrawn L2 5:45:50 - 14.40 40, 52, 52 (Avg:52)
129 Darryl King James Bonn Lame L2 6:32:59 12.8, 12.5 12.67 36, 52, 52 (Avg:52)
99 Wendy Riha Castlebar Chivas Lame L2 6:48:23 12.4, 11.9 12.19 40, 52, 60 (Avg:56)
169 Georgia Smith Ra-Anji Peter Rabbit Lame L2 7:30:42 11.8, 10.3 11.05 36, 56, 56 (Avg:56)
164 Ross Hill Suncrest Sadaqa's Pride Lame L2 8:03:46 11.7, 9.1 10.29 30, 48, 56 (Avg:52)
106 Lienca Nell Ruoak Daryus Lame L2 8:14:11 11.2, 9.0 10.08 36, 52, 54 (Avg:53)
121 Victoria Bonham Bridle Track Bogart Lame L2 9:01:24 9.7, 8.6 9.20 38, 48, 48 (Avg:48)
29 Olga Bartlett Mt Eerwah Anastazia Widthdrawn L2 9:39:44 - 8.59 32, 44, 44 (Avg:44)
116 Elsie Newsome Churinga Simfire Heart Rate L1 3:49:52 10.9 10.96 44, 72 (Avg:72)
9 Joy Craig Sunset Ridge Jupiter Metabolics L1 4:15:41 9.8 9.86 40, 54 (Avg:54)
100 Sally Cowan Willabee Park Ackwell Widthdrawn P/R 0:00:00 - - -
Lightweight
6 Kaylea Maher Chelleason Rembrandt 1 (BC) 11:37:36 14.0, 13.6, 14.9, 12.9, 11.7 13.76 48, 54, 52, 60, 52, 58, 52 (Avg:54)
102 Gina Thompson Dualling 2 11:58:33 16.1, 13.5, 13.4, 10.5, 11.7 13.36 34, 52, 50, 56, 48, 48, 56 (Avg:51)
59 Angela Hawks Rose Gum Tolstoy 3 12:01:46 14.1, 12.7, 13.9, 12.3, 12.7 13.30 36, 56, 48, 54, 48, 54, 60 (Avg:53)
112 Clare Fleming Warrawee Gay Paree 4 12:37:30 14.4, 12.9, 12.7, 11.5, 9.8 12.67 32, 56, 56, 52, 44, 54, 56 (Avg:53)
168 Jessica Aistrope Brechenridge Polo 5 13:08:09 14.3, 13.2, 11.7, 10.8, 8.9 12.18 36, 48, 56, 52, 44, 52, 52 (Avg:50)
118 Mindy Davies Maximus Ra 6 13:14:44 15.1, 14.6, 11.4, 9.0, 8.6 12.08 36, 52, 44, 56, 52, 56, 56 (Avg:52)
153 Sorsha Stuart-Rokvic Oso Emelyne 7 13:54:38 13.9, 12.0, 11.0, 10.0, 8.7 11.50 44, 58, 56, 56, 56, 54, 52 (Avg:55)
18 Shelley Chapman Sahala Astronomer 8 14:17:32 13.8, 12.2, 10.6, 9.5, 8.0 11.19 40, 48, 52, 56, 50, 58, 48 (Avg:52)
19 Renae Chapman Shanelli-Park Phoenix 8 14:17:32 13.8, 12.2, 10.6, 9.5, 8.0 11.19 44, 56, 56, 56, 56, 56, 54 (Avg:55)
20 Pip Ireland Larabi Rummanni 8 14:17:32 13.8, 12.2, 10.6, 9.5, 8.0 11.19 36, 48, 52, 48, 45, 48, 48 (Avg:48)
88 Sarah McLaughlin Tonki Dee Boo Shania 11 14:20:29 11.6, 10.2, 10.7, 12.2, 11.9 11.16 36, 44, 52, 52, 54, 48, 52 (Avg:50)
109 Shelley Cowan Honey Bee 12 14:29:29 12.0, 11.4, 10.4, 11.5, 8.7 11.04 32, 48, 48, 52, 48, 58, 52 (Avg:51)
126 Ellen Murdoch Castlebar What's The Goss 13 14:30:05 12.0, 11.3, 10.4, 11.4, 8.7 11.03 44, 44, 54, 52, 52, 56, 52 (Avg:51)
132 Kim Noble Warrawee Naaziq 14 14:53:07 13.5, 11.3, 11.0, 8.2, 7.9 10.75 42, 50, 52, 50, 54, 56, 56 (Avg:53)
87 Shannon Decker Cooroora Bold Dancer 15 15:09:02 13.4, 12.2, 10.1, 8.6, 6.6 10.56 34, 52, 56, 56, 50, 60, 56 (Avg:55)
32 Alexandra Toft Roger That te 16 16:02:42 11.8, 10.4, 11.0, 8.6, 6.1 9.97 36, 52, 56, 56, 48, 48, 45, 46 (Avg:50)
147 Kristie Wright Cooroora Allyjah 17 16:03:30 15.8, 12.0, 9.6, 6.7, 5.6 9.96 44, 48, 52, 50, 40, 56, 50 (Avg:49)
40 Monica Ballard Blake's Heaven Carousel 18 16:23:30 11.6, 10.0, 9.9, 8.3, 7.2 9.76 36, 52, 52, 52, 50, 52, 48 (Avg:51)
108 Amanda Rayner Ruby Park Athena 19 17:28:35 11.8, 9.9, 9.1, 8.4, 5.0 9.16 36, 52, 56, 56, 60, 60, 48 (Avg:55)
7 Kate Appleby Steel Poppy Zen 20 17:40:30 10.8, 9.8, 8.6, 7.7, 6.7 9.05 40, 56, 48, 46, 48, 48, 52 (Avg:49)
156 Allix Jones Aqaba Signette 20 17:40:30 11.0, 9.3, 8.6, 8.2, 6.8 9.05 34, 54, 56, 56, 44, 56, 56 (Avg:53)
137 Kate Pilley Castlebar Savannah 22 17:40:32 11.0, 9.3, 8.6, 8.2, 6.8 9.05 40, 52, 52, 45, 46, 56, 48 (Avg:49)
110 Ruth Morley Mariba Ashwani 23 17:46:31 11.9, 10.5, 10.1, 7.1, 4.3 9.00 44, 52, 50, 52, 58, 52, 48, 56 (Avg:52)
86 Nicky Robinson Sterling Nakeeta 24 17:53:19 11.6, 9.9, 8.9, 6.7, 6.0 8.94 40, 48, 52, 52, 44, 48, 52 (Avg:49)
152 Cherry Cummins Oso Bettina 25 18:53:25 12.9, 10.6, 8.6, 5.8, 4.3 8.47 36, 54, 48, 56, 48, 48, 44 (Avg:49)
162 Claire Godwin Tarkhim Shar Shalenah 26 19:00:52 10.5, 8.8, 9.0, 6.5, 5.8 8.41 40, 48, 48, 48, 50, 56, 48 (Avg:49)
33 Janelle Roosen Greywood Magenta 27 19:06:52 9.9, 9.0, 8.8, 6.8, 5.6 8.37 36, 48, 44, 56, 48, 48, 48 (Avg:48)
55 Trish Smith Beaucheval Akhiran 28 19:28:03 9.9, 9.1, 8.7, 6.1, 5.6 8.22 38, 48, 52, 52, 52, 56, 48 (Avg:51)
21 Alannah Luck West Coast Asher 29 19:32:21 10.8, 8.8, 8.8, 5.7, 5.5 8.19 32, 44, 56, 44, 48, 46, 46 (Avg:47)
122 Ros Ryan Rainbows Reach Scout 30 19:33:48 9.7, 8.6, 8.6, 6.8, 5.4 8.18 32, 40, 40, 48, 48, 48, 40 (Avg:44)
75 Grace Huxtable Shemali Saladin 31 20:04:34 9.1, 8.8, 8.2, 5.9, 6.3 7.97 40, 48, 44, 56, 52, 52, 52, 44 (Avg:49)
96 Renee Henry Cadenza Supernatural 32 20:08:22 9.9, 8.4, 8.7, 6.4, 4.8 7.94 31, 48, 50, 44, 48, 46, 46 (Avg:47)
79 Nicole Porter Lumeah Running Rats 33 20:08:28 10.0, 8.4, 8.5, 6.3, 4.8 7.94 36, 40, 48, 48, 48, 48, 42 (Avg:45)
49 Wal Carman Dyarah Park Gold Digger 34 20:34:05 9.9, 8.4, 6.5, 6.1, 8.7 7.78 40, 48, 48, 56, 52, 52, 56 (Avg:52)
47 Fiona Shearman Tom-May Mel-Bar Prince 34 20:34:05 10.0, 8.2, 6.7, 6.0, 8.6 7.78 36, 52, 48, 48, 44, 52, 48 (Avg:48)
80 Kasey Thomas Rocky Point Black Xanthanite Lame L5 19:15:17 10.5, 8.7, 8.9, 6.3, 5.6 8.31 56, 48, 52, 60, 52, 50, 56 (Avg:53)
127 Narelle Childs Maxwell Staccato Lame L4 12:58:46 13.4, 11.2, 11.0, 8.8 11.25 40, 52, 50, 52, 48, 52 (Avg:50)
179 Christal Rizk Kynnum Park Jai Widthdrawn L4 17:00:48 - 8.58 40, 52, 54, 56, 60, 52 (Avg:54)
67 Shannon Hill Magic Prediction Metabolics L3 5:29:25 16.0, 14.2, 1.6 22.40 44, 52, 56 (Avg:54)
4 Erin Krahnen Glengannon Azazael Lame L3 8:38:44 15.5, 13.4, 13.8 14.23 48, 56, 54, 60 (Avg:56)
124 Shirley Clark Oso Zoltan Lame L3 9:55:00 15.2, 12.4, 10.3 12.40 48, 56, 52, 58 (Avg:55)
142 Annette Chamberlain Annordean Lady Annette Widthdrawn L3 10:57:20 - 11.23 32, 48, 52, 50 (Avg:50)
51 Cherie Mumme Elysian Diamond Spirit Lame L3 13:37:30 10.0, 8.4, 8.7 9.03 36, 46, 52, 52 (Avg:50)
84 Helen Spencer Imoan Party Girl Metabolics L3 (Rep) 13:37:44 9.9, 9.1, 8.1 9.02 32, 52, 58, 52, 44 (Avg:51)
94 Pamela Cox Aloha Delilah Lame L2 8:28:57 10.1, 9.4 9.78 36, 48, 48 (Avg:48)
93 Jayne Rathbone Blake's Heaven Sunkissed Lame L2 8:57:41 10.6, 8.1 9.26 40, 52, 60 (Avg:56)
72 Felicity Perry Vandieman Phenix Lame L1 3:36:27 11.6 11.64 36, 58 (Avg:58)
173 Miki Bell Kalkadoon Vienna Metabolics L1 3:42:40 11.3 11.32 36, 46 (Avg:46)
97 Kim Noble Mizzi Couger Lame P/R 0:00:00 - - 40
Junior
70 Bella Pickering Vandieman Trojen 1 (BC) 11:15:58 14.9, 15.0, 14.4, 12.1, 13.2 14.20 34, 56, 56, 56, 56, 52, 58 (Avg:55)
63 Kirstie Lockhart Zane 2 11:58:42 16.0, 14.2, 13.1, 10.4, 11.3 13.36 36, 52, 52, 60, 60, 56, 52 (Avg:55)
176 Tahnaya Mercieca Candynae 3 14:39:55 12.8, 11.3, 10.4, 10.4, 7.9 10.91 44, 56, 60, 60, 58, 60, 56 (Avg:58)
98 Alison Noble Springridge Elite 4 14:53:20 13.5, 11.3, 11.0, 8.2, 7.9 10.75 36, 56, 58, 56, 54, 60, 60 (Avg:57)
30 Louis Ryan Kholonial Amigo 5 16:02:48 14.6, 13.0, 8.8, 7.5, 5.7 9.97 40, 57, 52, 48, 52, 44, 48, 55 (Avg:50)
69 Brittany Farrell Sanndenoa Shining Constellation Metabolics L3 (Rep) 9:56:53 13.9, 12.1, 11.1 12.36 36, 56, 58, 56, 66 (Avg:59)